Dammam King Fahd, Saudi Arabia

7:23 PM AST on October 22, 2014 (GMT +0300)
King Fahd International | Change Station
CLOSE
Current Station
Airport
Location: Dammam King Fahd,
Elevation: 39 ft
Nearby Weather Stations

Elev 39 ft 26.43 °N, 49.80 °E | Updated 23 minutes ago

Clear
Clear
79 °F
Feels Like 79 °F
N
9
Wind Variable Wind from North

Today
High -- | Low -- °F
--% Chance of Precip.
Yesterday
High -- | Low -- °F
Precip. -- in
5:43 AM 5:06 PM
Waning Crescent, 2% visible
Pressure 30.04 in
Visibility -9999.0 miles
Clouds
Dew Point 57 °F
Humidity 47%
Rainfall 0.00 in
Snow Depth Not available.
UV Not available.
Pollen Not available.
Air Quality Not available.
Flu Activity Not available.
METAR OEDF 221600Z 35008KT CAVOK 26/14 Q1017 NOSIG

More Conditions Fewer Conditions

Pressure 30.04 in
Visibility -9999.0 miles
Clouds
Dew Point 57 °F
Humidity 47%
Rainfall 0.00 in
Snow Depth Not available.
UV Not available.
Pollen Not available.
Air Quality Not available.
Flu Activity Not available.
METAR OEDF 221600Z 35008KT CAVOK 26/14 Q1017 NOSIG

More Conditions Fewer Conditions

10-Day Weather Forecast

Almanac

Astronomy

Oct. 22, 2014 Rise Set
Actual Time 5:43 AM AST 5:06 PM AST
Civil Twilight 5:20 AM AST 5:30 PM AST
Nautical Twilight 4:53 AM AST 5:57 PM AST
Astronomical Twilight 4:26 AM AST 6:24 PM AST
Moon 4:11 AM AST 4:13 PM AST
Length of Visible Light 12h 09m
Length of Day
11h 22m
Tomorrow will be 1m 26s shorter.
Waning Crescent, 2% of the Moon is Illuminated
Today
Waning Crescent
Oct 23
New
Oct 30
First Quarter
Nov 6
Full
Nov 14
Last Quarter

Today's Extremes

Country Highs Country Lows

Community

WunderPhotos

Upload Photos

1,763,955 photos uploaded!

Nearby

Snow Depth

Not available.

Earthquake Activity

City Distance Mag. Time & Date
No recent earthquake activity has been reported nearby.
Minimum magnitude displayed is 2.5.

Coastal Water Temperatures

Place Temperature
No Stations Reporting

Nearby Weather Stations